Currently 56°F in Anza, California, USA
56°F
56°F / 40°F
calm
0.00"
Wednesday, January 22, 2020 12:38 PM PST

Anza, California Weather Summary
Last 36 Hours

Temperature Winds Hourly Humidity Dewpoint
Time Report Norm Report Norm Max Gusts Precip. Rpt. Norm Rpt. Norm Pressure
1,2Wed 12:38 PM  56.2°F  57°F  calm  8 mph  none  0.00"  71%  45%  47°F  35°F  N/A
Wed 12:00 PM  55.2°F  57°F  calm  8 mph  none  0.00"  75%  45%  47°F  35°F  N/A
Wed 11:00 AM  53.8°F  56°F  calm  9 mph  none  0.00"  81%  46%  48°F  35°F  N/A
Wed 10:00 AM  51.6°F  54°F  calm  8 mph  none  0.00"  87%  49%  48°F  35°F  N/A
Wed 09:00 AM  46.0°F  52°F  calm  6 mph  none  0.00"  97%  54%  45°F  35°F  N/A
Wed 08:00 AM  42.0°F  47°F  calm  4 mph  none  0.00"  100%  62%  42°F  34°F  N/A
Wed 07:00 AM  41.0°F  42°F  calm  3 mph  none  0.00"  100%  66%  41°F  31°F  N/A
Wed 06:00 AM  40.6°F  42°F  calm  4 mph  none  0.00"  100%  66%  41°F  32°F  N/A
3Wed 05:54 AM  40.5°F  42°F  calm  3 mph  none  ----  100%  66%  40°F  32°F  N/A
Wed 05:00 AM  41.0°F  42°F  calm  4 mph  none  0.00"  100%  66%  41°F  32°F  N/A
Wed 04:00 AM  41.9°F  43°F  calm  3 mph  none  0.00"  100%  67%  42°F  32°F  N/A
Wed 03:00 AM  41.6°F  43°F  calm  3 mph  none  0.00"  100%  67%  42°F  32°F  N/A
Wed 02:00 AM  41.4°F  43°F  calm  3 mph  none  0.00"  99%  67%  41°F  32°F  N/A
Wed 01:00 AM  42.4°F  43°F  calm  3 mph  none  0.00"  99%  67%  42°F  32°F  N/A
Wed 12:00 AM  41.5°F  43°F  calm  3 mph  none  0.00"  99%  67%  41°F  32°F  N/A
Tue 11:00 PM  42.8°F  43°F  calm  3 mph  none  0.00"  99%  66%  43°F  32°F  N/A
Tue 10:00 PM  41.6°F  44°F  calm  3 mph  none  0.00"  100%  66%  41°F  33°F  N/A
Tue 09:00 PM  41.6°F  44°F  calm  3 mph  none  0.00"  100%  65%  41°F  33°F  N/A
Tue 08:00 PM  42.7°F  45°F  calm  3 mph  none  0.00"  99%  65%  42°F  33°F  N/A
Tue 07:00 PM  43.8°F  46°F  calm  3 mph  13 mph  0.00"  99%  64%  44°F  34°F  N/A
Tue 06:00 PM  44.3°F  48°F  calm  4 mph  none  0.00"  99%  60%  44°F  35°F  N/A
Tue 05:00 PM  44.5°F  52°F  calm  5 mph  none  0.00"  98%  55%  44°F  36°F  N/A
Tue 04:00 PM  45.4°F  55°F  calm  6 mph  none  0.00"  98%  49%  45°F  36°F  N/A
Tue 03:00 PM  45.8°F  57°F  calm  8 mph  none  0.00"  97%  46%  45°F  35°F  N/A
Tue 02:00 PM  47.0°F  58°F  calm  8 mph  none  0.00"  96%  45%  46°F  35°F  N/A
Tue 01:00 PM  49.2°F  57°F  calm  9 mph  none  0.00"  91%  45%  47°F  35°F  N/A
Tue 12:00 PM  48.7°F  57°F  calm  8 mph  none  0.00"  93%  44%  47°F  35°F  N/A
Tue 11:00 AM  47.5°F  56°F  calm  8 mph  none  0.00"  95%  45%  46°F  34°F  N/A
Tue 10:00 AM  47.5°F  55°F  calm  8 mph  none  0.00"  96%  48%  46°F  35°F  N/A
Tue 09:00 AM  46.0°F  52°F  calm  6 mph  14 mph  0.00"  98%  53%  46°F  35°F  N/A
Tue 08:00 AM  43.3°F  47°F  calm  4 mph  none  0.00"  100%  62%  43°F  34°F  N/A
Tue 07:00 AM  41.1°F  43°F  calm  3 mph  none  0.00"  100%  66%  41°F  32°F  N/A
Tue 06:00 AM  41.2°F  42°F  calm  3 mph  none  0.00"  100%  66%  41°F  31°F  N/A
Tue 05:00 AM  41.0°F  42°F  calm  4 mph  8 mph  0.01"  99%  66%  41°F  31°F  N/A
Tue 04:00 AM  41.2°F  42°F  calm  3 mph  none  0.01"  99%  67%  41°F  32°F  N/A
Tue 03:00 AM  41.6°F  42°F  calm  3 mph  none  0.03"  99%  67%  41°F  32°F  N/A
Tue 02:00 AM  41.7°F  42°F  calm  3 mph  none  0.03"  99%  67%  41°F  32°F  N/A
Tue 01:00 AM  42.6°F  43°F  calm  3 mph  none  0.02"  92%  67%  40°F  32°F  N/A

  1. Current weather data. No green row appears if the current weather data is also the high or low for the current day.
  2. High temperature for the current day.
  3. Low temperature for the current day.

The Anza, California weather pages are a service of WeatherCurrents. The Anza Valley is southwestern Riverside County, east of Temecula and Aguanga, south of Mount San Jacinto and west of Mount Santa Rosa.
Copyright ©2020  WeatherCurrents. All rights reserved. - Submit questions and comments - Privacy Policy

This page automatically refreshes every 10 minutes.